Time;durP1;ratioP1;P1;durP2;ratioP2;P2;SDS_P1;SDS_P2;PMS_P1;PMS_P2;Temp;Humidity;BMP_temperature;BMP_pressure;BME280_temperature;BME280_humidity;BME280_pressure;Samples;Min_cycle;Max_cycle;Signal;HPM_P1;HPM_P2
2023/07/10 00:01:50;;;;;;;11.10;4.93;;;;;;;18.34;88.34;102203.50;6113691;19;20120;-73
2023/07/10 00:03:56;;;;;;;10.43;4.40;;;;;;;18.36;88.55;102202.47;6115367;19;20014;-73
2023/07/10 00:06:02;;;;;;;10.38;4.57;;;;;;;18.33;89.06;102199.97;6114184;19;20042;-72
2023/07/10 00:08:08;;;;;;;13.90;4.72;;;;;;;18.35;89.24;102192.78;6114218;19;20471;-73
2023/07/10 00:10:19;;;;;;;12.57;4.15;;;;;;;18.41;89.69;102192.47;6115613;19;19999;-73
2023/07/10 00:12:25;;;;;;;10.38;4.35;;;;;;;18.45;89.42;102186.97;6115163;19;20034;-73
2023/07/10 00:14:33;;;;;;;10.73;5.10;;;;;;;18.37;88.93;102200.66;6114349;19;20073;-74
2023/07/10 00:16:39;;;;;;;10.05;4.47;;;;;;;18.36;88.95;102197.16;6115065;19;20022;-72
2023/07/10 00:18:44;;;;;;;12.55;5.20;;;;;;;18.37;88.85;102198.00;6115920;19;20494;-73
2023/07/10 00:20:49;;;;;;;13.77;4.75;;;;;;;18.35;88.08;102198.09;6114800;19;20042;-72
2023/07/10 00:22:55;;;;;;;10.35;4.63;;;;;;;18.38;87.86;102200.59;6115078;19;20015;-72
2023/07/10 00:25:00;;;;;;;11.85;4.35;;;;;;;18.41;87.80;102208.44;6114548;19;20405;-73
2023/07/10 00:27:13;;;;;;;10.18;4.25;;;;;;;18.39;86.86;102206.78;6113468;19;20071;-73
2023/07/10 00:29:22;;;;;;;12.15;4.32;;;;;;;18.38;85.49;102213.06;6114254;19;20471;-72
2023/07/10 00:31:28;;;;;;;8.63;3.78;;;;;;;18.32;83.22;102206.22;6107552;19;20011;-72
2023/07/10 00:33:33;;;;;;;7.72;3.17;;;;;;;18.29;82.95;102201.06;6113920;19;20014;-72
2023/07/10 00:35:42;;;;;;;6.65;2.97;;;;;;;18.28;82.91;102199.34;6111775;19;20015;-72
2023/07/10 00:38:01;;;;;;;7.60;3.60;;;;;;;18.23;82.53;102198.72;6112534;19;20011;-72
2023/07/10 00:40:22;;;;;;;7.75;3.85;;;;;;;18.32;83.11;102200.03;6112378;19;20014;-74
2023/07/10 00:42:31;;;;;;;9.52;4.55;;;;;;;18.29;83.54;102198.41;6113936;19;20474;-73
2023/07/10 00:44:41;;;;;;;9.32;4.53;;;;;;;18.27;83.60;102199.41;6114374;19;20134;-75
2023/07/10 00:46:53;;;;;;;8.40;4.15;;;;;;;18.27;83.64;102194.09;6113300;19;20038;-73
2023/07/10 00:49:08;;;;;;;11.25;4.97;;;;;;;18.20;84.27;102188.25;6113662;19;20095;-75
2023/07/10 00:51:19;;;;;;;14.50;4.88;;;;;;;18.12;84.49;102195.75;6112244;19;20075;-73
2023/07/10 00:53:31;;;;;;;11.35;4.50;;;;;;;18.14;84.97;102201.84;6110038;19;20014;-73
2023/07/10 00:55:40;;;;;;;12.02;5.20;;;;;;;18.06;85.84;102206.69;6112679;19;20086;-75
2023/07/10 00:57:48;;;;;;;11.95;5.47;;;;;;;18.05;86.22;102205.84;6112200;19;20017;-73
2023/07/10 00:59:54;;;;;;;10.73;4.88;;;;;;;18.00;86.87;102202.53;6112743;19;20475;-74
2023/07/10 01:02:18;;;;;;;13.70;5.70;;;;;;;17.91;87.30;102208.34;6113263;19;20010;-75
2023/07/10 01:04:23;;;;;;;12.18;5.18;;;;;;;17.87;87.02;102202.28;6113690;19;19999;-73
2023/07/10 01:06:34;;;;;;;10.75;4.65;;;;;;;17.84;87.46;102201.59;6113572;19;20011;-74
2023/07/10 01:08:46;;;;;;;9.15;5.03;;;;;;;17.81;87.57;102197.28;6112360;19;20030;-73
2023/07/10 01:10:51;;;;;;;13.13;4.90;;;;;;;17.68;87.99;102204.09;6113010;19;20073;-73
2023/07/10 01:12:59;;;;;;;12.65;5.05;;;;;;;17.72;87.87;102203.00;6110888;19;20505;-73
2023/07/10 01:15:07;;;;;;;9.98;4.85;;;;;;;17.64;87.97;102198.09;6110375;19;20011;-73
2023/07/10 01:17:13;;;;;;;8.80;4.22;;;;;;;17.64;87.77;102203.41;6112309;19;20023;-73
2023/07/10 01:19:21;;;;;;;10.68;5.07;;;;;;;17.57;88.12;102193.13;6112555;19;20038;-72
2023/07/10 01:21:40;;;;;;;10.25;4.32;;;;;;;17.51;88.20;102204.94;6109576;19;20006;-73
2023/07/10 01:23:45;;;;;;;10.27;3.88;;;;;;;17.44;88.25;102200.84;6112100;19;20377;-74
2023/07/10 01:25:56;;;;;;;8.98;3.90;;;;;;;17.46;88.04;102198.97;6112066;19;20011;-74
2023/07/10 01:28:09;;;;;;;8.35;3.40;;;;;;;17.44;87.85;102201.69;6113137;19;20029;-73
2023/07/10 01:30:25;;;;;;;6.18;3.50;;;;;;;17.38;88.49;102203.75;6112973;19;20015;-73
2023/07/10 01:32:32;;;;;;;7.97;3.63;;;;;;;17.33;88.31;102202.19;6111980;19;20067;-74
2023/07/10 01:34:42;;;;;;;9.55;3.58;;;;;;;17.34;88.74;102195.09;6112622;19;20039;-74
2023/07/10 01:36:50;;;;;;;7.32;3.30;;;;;;;17.28;88.56;102203.34;6112360;19;20033;-73
2023/07/10 01:39:01;;;;;;;6.63;3.28;;;;;;;17.28;88.51;102193.59;6113249;19;20077;-74
2023/07/10 01:41:15;;;;;;;7.78;3.75;;;;;;;17.28;89.05;102190.06;6112152;19;20023;-74
2023/07/10 01:43:20;;;;;;;9.15;3.65;;;;;;;17.25;89.51;102188.41;6112370;19;20003;-74
2023/07/10 01:45:26;;;;;;;7.93;2.90;;;;;;;17.24;89.63;102191.13;6104041;19;20436;-72
2023/07/10 01:47:33;;;;;;;9.07;3.40;;;;;;;17.18;89.50;102194.94;6112990;19;20046;-73
2023/07/10 01:49:44;;;;;;;8.35;3.17;;;;;;;17.17;89.81;102187.91;6112338;19;20515;-73
2023/07/10 01:51:50;;;;;;;10.07;3.38;;;;;;;17.08;90.49;102191.84;6113032;19;20002;-72
2023/07/10 01:53:55;;;;;;;7.63;2.97;;;;;;;17.17;90.27;102184.38;6112299;19;20042;-73
2023/07/10 01:56:02;;;;;;;7.38;3.25;;;;;;;17.13;90.42;102194.28;6112542;19;20327;-73
2023/07/10 01:58:07;;;;;;;8.82;3.63;;;;;;;17.15;90.56;102196.91;6112753;19;20092;-72
2023/07/10 02:00:13;;;;;;;7.80;3.00;;;;;;;17.06;90.85;102188.41;6110968;19;20042;-73
2023/07/10 02:02:16;;;;;;;8.13;3.00;;;;;;;17.08;90.75;102188.34;6112882;19;20484;-73
2023/07/10 02:04:21;;;;;;;;;;;;;;;17.06;91.07;102188.41;6113623;19;20349;-73
2023/07/10 02:06:26;;;;;;;7.95;3.38;;;;;;;17.02;91.33;102189.47;6112629;19;19982;-73
2023/07/10 02:08:34;;;;;;;8.20;3.10;;;;;;;17.00;91.53;102188.69;6111040;19;20006;-73
2023/07/10 02:10:39;;;;;;;9.93;3.95;;;;;;;17.00;91.78;102182.53;6112437;19;20014;-74
2023/07/10 02:12:49;;;;;;;9.00;3.00;;;;;;;17.03;91.42;102182.38;6111298;19;20027;-74
2023/07/10 02:14:54;;;;;;;8.35;3.65;;;;;;;16.97;91.48;102188.81;6110900;19;20022;-73
2023/07/10 02:16:59;;;;;;;8.02;3.35;;;;;;;16.92;91.87;102184.66;6111988;19;20085;-74
2023/07/10 02:19:05;;;;;;;9.88;3.40;;;;;;;16.91;92.02;102183.81;6110674;19;20024;-73
2023/07/10 02:21:10;;;;;;;9.52;3.95;;;;;;;16.85;92.23;102189.38;6111288;19;20534;-73
2023/07/10 02:23:15;;;;;;;7.03;3.20;;;;;;;16.81;92.61;102185.16;6111115;19;20070;-72
2023/07/10 02:25:23;;;;;;;9.43;3.47;;;;;;;16.82;92.63;102185.06;6111293;19;20011;-73
2023/07/10 02:27:28;;;;;;;8.98;3.58;;;;;;;16.78;92.98;102183.50;6108573;19;20078;-73
2023/07/10 02:29:33;;;;;;;8.70;3.88;;;;;;;16.76;93.08;102180.00;6112199;19;20027;-73
2023/07/10 02:31:39;;;;;;;9.57;2.97;;;;;;;16.68;93.11;102180.34;6111325;19;20030;-73
2023/07/10 02:33:44;;;;;;;8.50;3.70;;;;;;;16.61;93.14;102173.63;6112579;19;20399;-74
2023/07/10 02:35:49;;;;;;;10.63;3.30;;;;;;;16.57;93.64;102172.03;6112455;19;20011;-73
2023/07/10 02:37:54;;;;;;;8.32;3.05;;;;;;;16.54;93.42;102161.53;6109417;19;20487;-73
2023/07/10 02:39:59;;;;;;;8.40;3.28;;;;;;;16.51;93.45;102163.44;6111754;19;20368;-73
2023/07/10 02:42:08;;;;;;;6.97;3.03;;;;;;;16.47;93.98;102168.03;6110111;19;20003;-73
2023/07/10 02:44:14;;;;;;;5.22;2.95;;;;;;;16.51;94.17;102164.34;6109275;19;20502;-73
2023/07/10 02:46:19;;;;;;;10.30;3.47;;;;;;;16.51;94.42;102168.75;6109991;19;20011;-73
2023/07/10 02:48:24;;;;;;;11.48;4.07;;;;;;;16.48;94.66;102168.91;6110987;19;20019;-72
2023/07/10 02:50:29;;;;;;;7.10;2.75;;;;;;;16.50;94.63;102173.22;6111113;19;20011;-73
2023/07/10 02:52:34;;;;;;;10.13;3.70;;;;;;;16.52;94.03;102175.81;6110828;19;20022;-73
2023/07/10 02:54:42;;;;;;;7.43;2.92;;;;;;;16.50;95.00;102175.00;6110022;19;20034;-75
2023/07/10 02:56:44;;;;;;;7.63;3.45;;;;;;;16.49;95.21;102170.66;6109409;19;20479;-75
2023/07/10 02:58:54;;;;;;;9.68;3.65;;;;;;;16.46;95.46;102171.63;6110674;19;20452;-75
2023/07/10 03:01:03;;;;;;;8.27;3.75;;;;;;;16.45;95.30;102170.75;6109360;19;20053;-74
2023/07/10 03:03:09;;;;;;;7.88;3.50;;;;;;;16.49;95.07;102171.50;6115189;19;19999;-72
2023/07/10 03:05:14;;;;;;;7.57;3.45;;;;;;;16.45;95.54;102181.38;6117264;19;20002;-73
2023/07/10 03:07:20;;;;;;;6.82;2.97;;;;;;;16.42;96.13;102193.91;6116422;19;20014;-72
2023/07/10 03:09:29;;;;;;;8.02;3.00;;;;;;;16.43;95.79;102182.41;6113810;19;20349;-73
2023/07/10 03:11:34;;;;;;;9.02;3.15;;;;;;;16.40;96.31;102188.69;6116911;19;20025;-74
2023/07/10 03:13:36;;;;;;;9.60;3.50;;;;;;;16.45;95.93;102189.31;6115551;19;20104;-74
2023/07/10 03:15:45;;;;;;;8.98;3.47;;;;;;;16.41;95.95;102195.72;6117870;19;20014;-73
2023/07/10 03:17:50;;;;;;;9.32;3.63;;;;;;;16.41;95.71;102190.41;6117457;19;20412;-74
2023/07/10 03:19:55;;;;;;;5.97;3.25;;;;;;;16.43;95.47;102193.00;6117610;19;20018;-74
2023/07/10 03:22:01;;;;;;;5.78;3.08;;;;;;;16.36;95.97;102197.69;6116844;19;20022;-72
2023/07/10 03:24:07;;;;;;;8.95;3.20;;;;;;;16.37;96.44;102198.56;6117678;19;20055;-73
2023/07/10 03:26:12;;;;;;;9.52;3.92;;;;;;;16.33;95.90;102195.19;6116644;19;20017;-74
2023/07/10 03:28:20;;;;;;;7.72;3.20;;;;;;;16.33;96.60;102202.28;6115591;19;20015;-74
2023/07/10 03:30:25;;;;;;;8.77;3.20;;;;;;;16.36;96.64;102199.50;6116432;19;20010;-75
2023/07/10 03:32:30;;;;;;;10.45;3.63;;;;;;;16.36;96.96;102203.00;6115159;19;20471;-74
2023/07/10 03:34:36;;;;;;;9.77;3.63;;;;;;;16.34;96.95;102201.34;6115076;19;20573;-72
2023/07/10 03:36:42;;;;;;;11.70;3.70;;;;;;;16.32;96.64;102195.25;6115979;19;20138;-73
2023/07/10 03:38:47;;;;;;;9.43;3.78;;;;;;;16.33;96.62;102211.09;6114795;19;20011;-72
2023/07/10 03:40:50;;;;;;;8.60;3.50;;;;;;;16.27;96.71;102206.03;6115801;19;20010;-73
2023/07/10 03:42:55;;;;;;;7.22;3.00;;;;;;;16.24;96.58;102198.22;6115309;19;20062;-73
2023/07/10 03:45:01;;;;;;;8.40;3.15;;;;;;;16.23;97.11;102201.81;6114348;19;20482;-74
2023/07/10 03:47:08;;;;;;;8.60;3.25;;;;;;;16.23;97.25;102207.09;6115887;19;20030;-74
2023/07/10 03:49:16;;;;;;;8.32;3.22;;;;;;;16.21;97.50;102196.56;6115774;19;20018;-74
2023/07/10 03:51:22;;;;;;;8.48;3.58;;;;;;;16.26;97.01;102203.47;6116604;19;20023;-73
2023/07/10 03:53:28;;;;;;;6.00;3.00;;;;;;;16.26;97.86;102209.63;6110176;19;20015;-74
2023/07/10 03:55:36;;;;;;;7.53;3.38;;;;;;;16.25;97.56;102210.56;6116055;19;20019;-72
2023/07/10 03:57:40;;;;;;;9.07;3.08;;;;;;;16.26;96.69;102216.72;6116798;19;20022;-74
2023/07/10 03:59:46;;;;;;;6.90;3.15;;;;;;;16.27;97.19;102221.94;6115024;19;20022;-74
2023/07/10 04:01:51;;;;;;;11.23;3.88;;;;;;;16.29;97.34;102220.09;6115144;19;20010;-75
2023/07/10 04:03:56;;;;;;;8.82;3.00;;;;;;;16.27;97.61;102224.59;6115078;19;20018;-73
2023/07/10 04:06:07;;;;;;;10.80;3.53;;;;;;;16.31;97.28;102231.50;6113572;19;20011;-74
2023/07/10 04:08:12;;;;;;;6.50;3.08;;;;;;;16.26;97.64;102232.66;6114496;19;20010;-73
2023/07/10 04:10:17;;;;;;;9.07;3.22;;;;;;;16.26;97.57;102243.25;6113861;19;20011;-73
2023/07/10 04:12:20;;;;;;;6.55;3.28;;;;;;;16.26;97.14;102238.81;6112526;19;20034;-74
2023/07/10 04:14:25;;;;;;;8.93;3.50;;;;;;;16.28;97.43;102236.09;6113753;19;20010;-74
2023/07/10 04:16:33;;;;;;;13.82;3.53;;;;;;;16.30;97.77;102240.41;6113981;19;20006;-75
2023/07/10 04:18:40;;;;;;;11.93;3.30;;;;;;;16.29;97.34;102238.66;6113722;19;20011;-74
2023/07/10 04:20:45;;;;;;;7.75;3.08;;;;;;;16.29;97.91;102233.38;6114133;19;20389;-74
2023/07/10 04:22:53;;;;;;;9.43;3.60;;;;;;;16.34;97.33;102241.13;6112876;19;20020;-74
2023/07/10 04:25:03;;;;;;;7.35;3.00;;;;;;;16.38;97.48;102246.25;6113335;19;20475;-75
2023/07/10 04:27:10;;;;;;;7.32;3.30;;;;;;;16.40;97.17;102240.88;6091588;19;20528;-75
2023/07/10 04:29:15;;;;;;;10.40;3.65;;;;;;;16.43;97.27;102246.94;6113823;19;19998;-74
2023/07/10 04:31:21;;;;;;;8.60;3.67;;;;;;;16.47;97.20;102245.00;6114535;19;20078;-72
2023/07/10 04:33:29;;;;;;;9.55;3.78;;;;;;;16.49;96.80;102242.28;6112674;19;20058;-74
2023/07/10 04:35:40;;;;;;;12.00;4.97;;;;;;;16.55;96.73;102244.66;6114430;19;20097;-75
2023/07/10 04:37:45;;;;;;;9.40;3.75;;;;;;;16.58;96.88;102248.03;6113581;19;20014;-75
2023/07/10 04:39:56;;;;;;;9.57;3.17;;;;;;;16.67;96.03;102250.31;6113555;19;20018;-75
2023/07/10 04:42:02;;;;;;;7.32;3.25;;;;;;;16.75;96.09;102239.34;6113148;19;20006;-74
2023/07/10 04:44:07;;;;;;;13.73;3.35;;;;;;;16.83;95.32;102241.72;6111556;19;20083;-73
2023/07/10 04:46:14;;;;;;;6.28;2.97;;;;;;;16.93;95.14;102234.16;6112685;19;20404;-74
2023/07/10 04:48:19;;;;;;;8.32;4.57;;;;;;;17.04;94.65;102247.84;6112815;19;20443;-73
2023/07/10 04:50:25;;;;;;;7.95;3.25;;;;;;;17.15;94.51;102239.41;6112846;19;20483;-72
2023/07/10 04:52:32;;;;;;;7.05;3.28;;;;;;;17.31;94.24;102235.94;6112268;19;20046;-74
2023/07/10 04:54:38;;;;;;;9.00;3.33;;;;;;;17.45;93.28;102237.94;6114088;19;20003;-72
2023/07/10 04:56:46;;;;;;;8.45;3.17;;;;;;;17.53;92.28;102235.78;6112844;19;20017;-73
2023/07/10 04:58:54;;;;;;;9.68;3.10;;;;;;;17.70;92.09;102236.81;6112798;19;20047;-74
2023/07/10 05:00:58;;;;;;;9.60;2.97;;;;;;;17.79;91.16;102241.69;6112278;19;20030;-75
2023/07/10 05:03:04;;;;;;;6.57;3.05;;;;;;;18.01;89.82;102241.53;6112965;19;20015;-73
2023/07/10 05:05:10;;;;;;;13.35;3.38;;;;;;;18.10;89.22;102234.88;6113456;19;20030;-73
2023/07/10 05:07:15;;;;;;;8.50;2.95;;;;;;;18.30;88.25;102237.41;6112375;19;20011;-73
2023/07/10 05:09:21;;;;;;;8.52;2.92;;;;;;;18.48;87.94;102235.56;6112894;19;20023;-74
2023/07/10 05:11:29;;;;;;;8.95;2.55;;;;;;;18.49;86.88;102242.63;6110397;19;20032;-73
2023/07/10 05:13:39;;;;;;;8.95;2.95;;;;;;;18.74;86.51;102244.88;6109690;19;20051;-74
2023/07/10 05:15:44;;;;;;;9.02;2.60;;;;;;;18.90;85.93;102238.75;6110790;19;20050;-73
2023/07/10 05:17:50;;;;;;;9.93;3.03;;;;;;;19.10;84.99;102243.91;6112172;19;20050;-73
2023/07/10 05:19:55;;;;;;;9.07;2.67;;;;;;;19.35;84.02;102245.22;6111911;19;20018;-75
2023/07/10 05:22:03;;;;;;;6.10;2.58;;;;;;;19.61;84.00;102243.75;6113166;19;20068;-73
2023/07/10 05:24:09;;;;;;;6.90;2.58;;;;;;;19.74;82.62;102234.16;6110971;19;20023;-74
2023/07/10 05:26:19;;;;;;;8.90;3.10;;;;;;;19.67;81.41;102239.00;6110293;19;20576;-74
2023/07/10 05:28:25;;;;;;;6.18;3.22;;;;;;;19.87;80.45;102234.31;6111526;19;20022;-73
2023/07/10 05:30:33;;;;;;;7.13;2.83;;;;;;;19.97;80.77;102230.16;6111583;19;20039;-73
2023/07/10 05:32:39;;;;;;;7.95;2.95;;;;;;;20.27;79.15;102243.50;6112276;19;20030;-73
2023/07/10 05:34:44;;;;;;;8.63;2.75;;;;;;;20.46;78.39;102242.41;6112861;19;20022;-74
2023/07/10 05:36:49;;;;;;;10.57;2.92;;;;;;;20.46;78.13;102243.28;6111646;19;20006;-73
2023/07/10 05:38:54;;;;;;;10.35;3.05;;;;;;;20.55;76.66;102242.75;6111944;19;20483;-73
2023/07/10 05:40:59;;;;;;;5.97;3.30;;;;;;;20.85;76.22;102235.63;6112367;19;20014;-74
2023/07/10 05:43:05;;;;;;;5.38;2.72;;;;;;;20.83;74.90;102241.94;6110454;19;20010;-73
2023/07/10 05:45:11;;;;;;;6.65;2.67;;;;;;;21.00;75.88;102243.56;6112155;19;20020;-73
2023/07/10 05:47:19;;;;;;;12.45;3.63;;;;;;;21.11;73.51;102250.06;6110551;19;20029;-72
2023/07/10 05:49:25;;;;;;;6.68;2.95;;;;;;;21.20;73.47;102244.16;6109350;19;20063;-72
2023/07/10 05:51:33;;;;;;;4.32;2.50;;;;;;;21.44;73.65;102242.59;6111283;19;20007;-73
2023/07/10 05:53:40;;;;;;;7.75;3.03;;;;;;;21.50;72.93;102246.69;6110863;19;20090;-73
2023/07/10 05:55:44;;;;;;;8.55;3.15;;;;;;;21.60;72.01;102250.50;6109879;19;20102;-74
2023/07/10 05:57:49;;;;;;;7.43;3.00;;;;;;;21.57;71.09;102253.38;6112943;19;20475;-73
2023/07/10 05:59:55;;;;;;;7.82;2.92;;;;;;;21.43;71.69;102258.75;6111326;19;20014;-73
2023/07/10 06:02:02;;;;;;;15.25;3.35;;;;;;;21.51;70.96;102263.59;6110154;19;20488;-74
2023/07/10 06:04:10;;;;;;;8.13;2.78;;;;;;;21.66;70.71;102262.63;6111526;19;20013;-75
2023/07/10 06:06:16;;;;;;;9.10;3.20;;;;;;;21.75;70.16;102259.34;6111422;19;20471;-74
2023/07/10 06:08:21;;;;;;;6.90;2.67;;;;;;;22.02;69.79;102263.84;6112579;19;20018;-73
2023/07/10 06:10:26;;;;;;;9.18;3.00;;;;;;;21.98;69.11;102259.66;6112780;19;20018;-75
2023/07/10 06:12:32;;;;;;;9.45;2.72;;;;;;;21.94;68.12;102260.81;6112343;19;20010;-73
2023/07/10 06:14:58;;;;;;;6.72;2.78;;;;;;;22.07;68.11;102261.72;6112128;19;20027;-74
2023/07/10 06:17:04;;;;;;;7.13;2.80;;;;;;;22.37;67.44;102266.00;6111861;19;20447;-74
2023/07/10 06:19:12;;;;;;;6.45;3.05;;;;;;;22.78;65.75;102257.81;6112250;19;20030;-73
2023/07/10 06:21:17;;;;;;;8.68;2.80;;;;;;;22.60;65.94;102254.59;6112934;19;20019;-73
2023/07/10 06:23:19;;;;;;;6.90;2.95;;;;;;;22.44;65.83;102261.97;6090756;19;20011;-74
2023/07/10 06:25:24;;;;;;;7.43;2.63;;;;;;;22.77;65.21;102259.59;6110107;19;20451;-73
2023/07/10 06:27:29;;;;;;;7.32;3.10;;;;;;;22.46;66.35;102270.72;6112206;19;20022;-73
2023/07/10 06:29:36;;;;;;;8.45;2.97;;;;;;;23.09;64.15;102261.91;6113855;19;20352;-73
2023/07/10 06:31:41;;;;;;;8.45;2.70;;;;;;;23.16;64.49;102265.84;6112895;19;20093;-74
2023/07/10 06:33:47;;;;;;;10.63;3.10;;;;;;;23.12;63.29;102264.38;6113217;19;20135;-73
2023/07/10 06:35:54;;;;;;;5.85;2.65;;;;;;;23.42;62.29;102274.72;6110759;19;20019;-73
2023/07/10 06:38:00;;;;;;;8.15;2.85;;;;;;;23.45;62.12;102269.13;6119578;19;20461;-73
2023/07/10 06:40:12;;;;;;;9.27;2.85;;;;;;;23.51;61.46;102267.81;6119465;19;20447;-74
2023/07/10 06:42:17;;;;;;;8.85;3.00;;;;;;;23.46;61.22;102267.31;6120011;19;20078;-74
2023/07/10 06:44:22;;;;;;;8.68;2.65;;;;;;;23.25;59.37;102269.72;6120293;19;20019;-74
2023/07/10 06:46:30;;;;;;;5.43;2.85;;;;;;;23.02;60.02;102268.66;6120662;19;20015;-73
2023/07/10 06:48:35;;;;;;;10.70;3.00;;;;;;;23.83;59.08;102280.75;6119018;19;20470;-73
2023/07/10 06:50:41;;;;;;;7.97;2.67;;;;;;;23.82;57.44;102276.34;6117453;19;20011;-73
2023/07/10 06:52:48;;;;;;;7.95;2.50;;;;;;;24.05;57.44;102286.22;6118032;19;20011;-74
2023/07/10 06:54:56;;;;;;;5.45;2.45;;;;;;;23.98;57.08;102287.66;6117842;19;20034;-74
2023/07/10 06:57:04;;;;;;;9.20;3.45;;;;;;;24.04;56.37;102292.56;6117314;19;19999;-74
2023/07/10 06:59:10;;;;;;;6.30;2.33;;;;;;;23.95;56.51;102287.03;6117938;19;20006;-74
2023/07/10 07:01:15;;;;;;;13.15;3.25;;;;;;;24.45;55.60;102296.66;6117743;19;20023;-74
2023/07/10 07:03:20;;;;;;;7.03;2.75;;;;;;;24.03;56.60;102290.84;6116810;19;20340;-74
2023/07/10 07:05:26;;;;;;;8.82;2.60;;;;;;;24.41;54.51;102294.28;6112684;19;20014;-73
2023/07/10 07:07:32;;;;;;;7.20;2.63;;;;;;;24.08;55.72;102299.41;6115077;19;20014;-73
2023/07/10 07:09:40;;;;;;;12.10;3.40;;;;;;;24.38;54.96;102295.41;6115315;19;20373;-73
2023/07/10 07:11:45;;;;;;;6.90;3.00;;;;;;;24.39;54.52;102286.38;6116163;19;20070;-73
2023/07/10 07:13:50;;;;;;;9.15;2.47;;;;;;;24.71;54.09;102289.28;6117677;19;20018;-73
2023/07/10 07:15:57;;;;;;;7.80;2.97;;;;;;;24.70;53.84;102290.28;6116470;19;20104;-73
2023/07/10 07:18:03;;;;;;;15.75;3.28;;;;;;;24.26;53.82;102293.66;6116677;19;20015;-73
2023/07/10 07:20:10;;;;;;;6.35;2.10;;;;;;;25.04;51.70;102294.81;6110444;19;20089;-74
2023/07/10 07:22:16;;;;;;;8.80;2.50;;;;;;;24.92;50.83;102294.81;6115073;19;20011;-73
2023/07/10 07:24:21;;;;;;;8.00;2.33;;;;;;;24.87;50.54;102286.25;6115356;19;20011;-73
2023/07/10 07:26:29;;;;;;;7.90;2.20;;;;;;;24.31;51.51;102289.63;6116483;19;20019;-73
2023/07/10 07:28:35;;;;;;;5.40;2.35;;;;;;;24.32;50.08;102287.78;6114513;19;20010;-73
2023/07/10 07:30:47;;;;;;;7.43;2.55;;;;;;;24.06;49.89;102290.59;6115069;19;20376;-73
2023/07/10 07:32:53;;;;;;;8.90;2.28;;;;;;;24.65;51.25;102288.91;6114901;19;20018;-73
2023/07/10 07:35:05;;;;;;;7.13;2.30;;;;;;;24.34;49.08;102293.91;6114461;19;20050;-74
2023/07/10 07:37:11;;;;;;;7.80;2.55;;;;;;;24.00;49.95;102291.06;6115517;19;20220;-74
2023/07/10 07:39:16;;;;;;;6.65;1.80;;;;;;;24.05;50.80;102293.44;6116041;19;20015;-74
2023/07/10 07:41:21;;;;;;;6.75;1.83;;;;;;;24.74;48.84;102296.25;6115073;19;20006;-73
2023/07/10 07:43:29;;;;;;;8.45;2.00;;;;;;;24.47;49.11;102297.41;6109744;19;20043;-73
2023/07/10 07:45:34;;;;;;;6.50;2.03;;;;;;;25.11;49.47;102288.84;6113148;19;20011;-73
2023/07/10 07:47:40;;;;;;;8.57;2.03;;;;;;;25.98;47.67;102283.63;6113758;19;20018;-73
2023/07/10 07:49:45;;;;;;;4.35;1.77;;;;;;;24.98;46.83;102288.94;6116220;19;20475;-73
2023/07/10 07:51:50;;;;;;;8.38;2.40;;;;;;;24.95;46.99;102289.19;6114080;19;20010;-73
2023/07/10 07:54:05;;;;;;;7.97;1.90;;;;;;;25.12;48.91;102297.75;6115610;19;20504;-73
2023/07/10 07:56:12;;;;;;;8.88;2.20;;;;;;;24.94;48.21;102290.19;6115200;19;20365;-73
2023/07/10 07:58:17;;;;;;;5.35;1.90;;;;;;;24.78;47.82;102292.38;6115729;19;20447;-73
2023/07/10 08:00:25;;;;;;;5.88;2.28;;;;;;;25.43;46.93;102290.81;6113842;19;20388;-73
2023/07/10 08:02:32;;;;;;;9.68;2.33;;;;;;;25.69;46.72;102287.84;6116006;19;20091;-75
2023/07/10 08:04:38;;;;;;;8.27;2.28;;;;;;;25.83;46.62;102285.75;6115547;19;20014;-75
2023/07/10 08:06:43;;;;;;;6.60;2.30;;;;;;;24.62;50.02;102302.56;6115506;19;20022;-75
2023/07/10 08:08:48;;;;;;;13.18;2.55;;;;;;;24.34;50.42;102291.22;6116048;19;20011;-74
2023/07/10 08:10:54;;;;;;;11.23;2.95;;;;;;;24.82;51.03;102287.59;6114498;19;20014;-74
2023/07/10 08:13:04;;;;;;;9.77;2.10;;;;;;;25.99;48.47;102289.91;6116539;19;20050;-73
2023/07/10 08:15:16;;;;;;;8.60;2.45;;;;;;;25.66;48.22;102283.56;6115702;19;20027;-73
2023/07/10 08:17:24;;;;;;;8.15;2.78;;;;;;;25.95;48.10;102293.81;6113556;19;20018;-75
2023/07/10 08:19:29;;;;;;;10.40;2.55;;;;;;;25.38;48.74;102288.53;6111897;19;20015;-73
2023/07/10 08:21:34;;;;;;;5.90;2.85;;;;;;;25.66;47.95;102283.56;6115618;19;20023;-73
2023/07/10 08:23:42;;;;;;;7.55;2.30;;;;;;;25.28;48.54;102295.63;6116113;19;21276;-73
2023/07/10 08:25:48;;;;;;;4.25;2.03;;;;;;;25.38;49.78;102298.41;6114037;19;20018;-73
2023/07/10 08:27:53;;;;;;;6.45;2.08;;;;;;;26.16;47.97;102292.00;6115099;19;20023;-73
2023/07/10 08:29:58;;;;;;;7.00;2.55;;;;;;;26.11;46.73;102294.25;6115398;19;20074;-73
2023/07/10 08:32:04;;;;;;;9.63;3.05;;;;;;;25.35;48.54;102283.34;6115948;19;20014;-72
2023/07/10 08:34:12;;;;;;;7.68;2.22;;;;;;;25.59;48.80;102285.03;6114052;19;20010;-72
2023/07/10 08:36:17;;;;;;;7.20;2.72;;;;;;;26.22;48.11;102285.25;6114638;19;20043;-72
2023/07/10 08:38:22;;;;;;;10.68;2.60;;;;;;;25.42;48.77;102289.13;6114046;19;20014;-72
2023/07/10 08:40:33;;;;;;;6.55;2.40;;;;;;;26.46;47.87;102291.28;6113232;19;20010;-72
2023/07/10 08:42:39;;;;;;;10.45;3.28;;;;;;;25.94;48.17;102286.72;6113862;19;20011;-72
2023/07/10 08:44:45;;;;;;;9.20;2.70;;;;;;;26.32;48.18;102294.28;6112565;19;20031;-72
2023/07/10 08:46:50;;;;;;;9.50;2.63;;;;;;;26.27;47.28;102289.25;6114172;19;20011;-71
2023/07/10 08:49:01;;;;;;;7.60;2.22;;;;;;;27.48;46.47;102286.00;6113549;19;20357;-73
2023/07/10 08:51:18;;;;;;;11.65;2.92;;;;;;;27.15;45.15;102290.72;6113078;19;20495;-73
2023/07/10 08:53:31;;;;;;;7.45;2.47;;;;;;;27.11;45.39;102294.66;6112164;19;20010;-71
2023/07/10 08:55:40;;;;;;;;;;;;;;;27.34;44.64;102291.81;6114126;19;20082;-72
2023/07/10 08:57:56;;;;;;;6.18;1.90;;;;;;;26.98;44.59;102303.97;6113441;19;19983;-73
2023/07/10 09:00:06;;;;;;;4.68;1.95;;;;;;;26.61;45.81;102299.91;6110625;19;20011;-72
2023/07/10 09:02:21;;;;;;;7.75;2.17;;;;;;;27.32;43.91;102291.94;6112454;19;20027;-73
2023/07/10 09:04:28;;;;;;;7.85;2.00;;;;;;;27.60;43.04;102297.56;6113603;19;20031;-73
2023/07/10 09:06:44;;;;;;;10.00;2.42;;;;;;;27.76;43.10;102294.34;6114233;19;20074;-73
2023/07/10 09:08:52;;;;;;;9.10;2.30;;;;;;;27.69;42.42;102296.72;6112611;19;20015;-73
2023/07/10 09:11:03;;;;;;;7.88;2.38;;;;;;;26.67;44.92;102302.09;6112858;19;20388;-73
2023/07/10 09:13:13;;;;;;;6.55;1.83;;;;;;;27.82;44.26;102291.09;6113675;19;20015;-72
2023/07/10 09:15:25;;;;;;;6.85;2.92;;;;;;;27.04;45.70;102304.28;6112627;19;20002;-72
2023/07/10 09:17:39;;;;;;;9.20;2.60;;;;;;;27.80;44.83;102301.16;6109873;19;20084;-72
2023/07/10 09:19:47;;;;;;;7.22;2.10;;;;;;;26.54;45.56;102295.16;6112446;19;20086;-72
2023/07/10 09:21:55;;;;;;;5.65;2.03;;;;;;;27.14;45.93;102299.78;6113662;19;20006;-72
2023/07/10 09:24:01;;;;;;;7.18;1.75;;;;;;;26.74;43.74;102307.81;6113830;19;20082;-72
2023/07/10 09:26:12;;;;;;;10.98;2.45;;;;;;;27.00;44.27;102294.75;6112451;19;20402;-72
2023/07/10 09:28:17;;;;;;;10.00;2.50;;;;;;;26.73;44.41;102291.78;6113733;19;20487;-72
2023/07/10 09:30:49;;;;;;;5.10;1.60;;;;;;;26.82;45.02;102290.97;6113454;19;20054;-72
2023/07/10 09:33:10;;;;;;;6.00;2.08;;;;;;;27.37;43.05;102294.22;6112725;19;20018;-71
2023/07/10 09:35:19;;;;;;;5.80;2.00;;;;;;;26.49;45.15;102298.25;6112973;19;20015;-70
2023/07/10 09:37:35;;;;;;;5.25;1.90;;;;;;;27.41;42.96;102290.28;6111751;19;20018;-71
2023/07/10 09:39:42;;;;;;;4.15;1.95;;;;;;;27.21;42.30;102299.28;6111338;19;20035;-72
2023/07/10 09:41:49;;;;;;;7.75;2.83;;;;;;;27.43;41.95;102293.66;6113570;19;20350;-71
2023/07/10 09:44:00;;;;;;;6.30;2.13;;;;;;;27.32;43.47;102296.47;6111986;19;20058;-70
2023/07/10 09:46:05;;;;;;;5.57;2.03;;;;;;;27.62;43.24;102300.13;6110990;19;20011;-70
2023/07/10 09:48:23;;;;;;;5.15;2.50;;;;;;;28.26;42.33;102310.47;6112547;19;20134;-70
2023/07/10 09:50:35;;;;;;;6.25;1.77;;;;;;;27.34;41.61;102302.59;6113417;19;20007;-70
2023/07/10 09:52:44;;;;;;;4.75;2.10;;;;;;;28.04;43.00;102308.88;6111832;19;20038;-71